Time;durP1;ratioP1;P1;durP2;ratioP2;P2;SDS_P1;SDS_P2;PMS_P1;PMS_P2;Temp;Humidity;BMP_temperature;BMP_pressure;BME280_temperature;BME280_humidity;BME280_pressure;Samples;Min_cycle;Max_cycle;Signal;HPM_P1;HPM_P2
2021/01/22 00:00:29;;;;;;;1.58;0.6;;;11.1;99.9;;;;;;;;;
2021/01/22 00:01:02;;;;;;;1.58;0.6;;;11.1;99.9;;;;;;;;;
2021/01/22 00:02:02;;;;;;;0.9;0.4;;;11;99.9;;;;;;;;;
2021/01/22 00:02:42;;;;;;;0.82;0.43;;;11;99.9;;;;;;;;;
2021/01/22 00:03:02;;;;;;;0.82;0.43;;;11;99.9;;;;;;;;;
2021/01/22 00:03:12;;;;;;;0.82;0.43;;;11;99.9;;;;;;;;;
2021/01/22 00:04:02;;;;;;;2.22;0.5;;;11.1;99.9;;;;;;;;;
2021/01/22 00:04:14;;;;;;;2.22;0.5;;;11.1;99.9;;;;;;;;;
2021/01/22 00:04:55;;;;;;;1.02;0.5;;;11.1;99.9;;;;;;;;;
2021/01/22 00:05:02;;;;;;;1.02;0.5;;;11.1;99.9;;;;;;;;;
2021/01/22 00:05:15;;;;;;;1.02;0.5;;;11.1;99.9;;;;;;;;;
2021/01/22 00:05:26;;;;;;;1.02;0.5;;;11.1;99.9;;;;;;;;;
2021/01/22 00:06:02;;;;;;;0.85;0.6;;;11.1;99.9;;;;;;;;;
2021/01/22 00:06:17;;;;;;;0.85;0.6;;;11.1;99.9;;;;;;;;;
2021/01/22 00:06:27;;;;;;;1.1;0.3;;;11.1;99.9;;;;;;;;;
2021/01/22 00:07:02;;;;;;;1.1;0.3;;;11.1;99.9;;;;;;;;;
2021/01/22 00:07:08;;;;;;;1.1;0.3;;;11.1;99.9;;;;;;;;;
2021/01/22 00:07:13;;;;;;;1.1;0.3;;;11.1;99.9;;;;;;;;;
2021/01/22 00:07:28;;;;;;;0.6;0.6;;;11.1;99.9;;;;;;;;;
2021/01/22 00:07:39;;;;;;;0.6;0.6;;;11.1;99.9;;;;;;;;;
2021/01/22 00:08:02;;;;;;;0.6;0.6;;;11.1;99.9;;;;;;;;;
2021/01/22 00:08:15;;;;;;;0.6;0.6;;;11.1;99.9;;;;;;;;;
2021/01/22 00:08:30;;;;;;;0.5;0.5;;;11.1;99.9;;;;;;;;;
2021/01/22 00:08:40;;;;;;;0.5;0.5;;;11.1;99.9;;;;;;;;;
2021/01/22 00:09:02;;;;;;;0.5;0.5;;;11.1;99.9;;;;;;;;;
2021/01/22 00:09:16;;;;;;;0.5;0.5;;;11.1;99.9;;;;;;;;;
2021/01/22 00:09:26;;;;;;;0.5;0.5;;;11.1;99.9;;;;;;;;;
2021/01/22 00:09:42;;;;;;;0.52;0.32;;;11.1;99.9;;;;;;;;;
2021/01/22 00:09:52;;;;;;;0.52;0.32;;;11.1;99.9;;;;;;;;;
2021/01/22 00:10:02;;;;;;;0.52;0.32;;;11.1;99.9;;;;;;;;;
2021/01/22 00:10:12;;;;;;;0.52;0.32;;;11.1;99.9;;;;;;;;;
2021/01/22 00:10:28;;;;;;;1.27;0.52;;;11.2;99.9;;;;;;;;;
2021/01/22 00:10:43;;;;;;;1.27;0.52;;;11.2;99.9;;;;;;;;;
2021/01/22 00:10:53;;;;;;;1.27;0.52;;;11.2;99.9;;;;;;;;;
2021/01/22 00:11:02;;;;;;;1.27;0.52;;;11.2;99.9;;;;;;;;;
2021/01/22 00:11:14;;;;;;;1.27;0.52;;;11.2;99.9;;;;;;;;;
2021/01/22 00:11:29;;;;;;;0.95;0.5;;;11.2;99.9;;;;;;;;;
2021/01/22 00:11:39;;;;;;;0.95;0.5;;;11.2;99.9;;;;;;;;;
2021/01/22 00:11:55;;;;;;;0.95;0.5;;;11.2;99.9;;;;;;;;;
2021/01/22 00:12:02;;;;;;;0.95;0.5;;;11.2;99.9;;;;;;;;;
2021/01/22 00:12:05;;;;;;;0.95;0.5;;;11.2;99.9;;;;;;;;;
2021/01/22 00:12:15;;;;;;;0.95;0.5;;;11.2;99.9;;;;;;;;;
2021/01/22 00:12:25;;;;;;;0.95;0.5;;;11.2;99.9;;;;;;;;;
2021/01/22 00:12:41;;;;;;;1.1;0.6;;;11.2;99.9;;;;;;;;;
2021/01/22 00:12:56;;;;;;;1.1;0.6;;;11.2;99.9;;;;;;;;;
2021/01/22 00:13:02;;;;;;;1.1;0.6;;;11.2;99.9;;;;;;;;;
2021/01/22 00:13:06;;;;;;;1.1;0.6;;;11.2;99.9;;;;;;;;;
2021/01/22 00:13:16;;;;;;;1.1;0.6;;;11.2;99.9;;;;;;;;;
2021/01/22 00:13:27;;;;;;;1.1;0.6;;;11.2;99.9;;;;;;;;;
2021/01/22 00:13:42;;;;;;;0.4;0.38;;;11.2;99.9;;;;;;;;;
2021/01/22 00:13:52;;;;;;;0.4;0.38;;;11.2;99.9;;;;;;;;;
2021/01/22 00:14:02;;;;;;;0.4;0.38;;;11.2;99.9;;;;;;;;;
2021/01/22 00:14:08;;;;;;;0.4;0.38;;;11.2;99.9;;;;;;;;;
2021/01/22 00:14:13;;;;;;;0.4;0.38;;;11.2;99.9;;;;;;;;;
2021/01/22 00:14:28;;;;;;;0.4;0.38;;;11.2;99.9;;;;;;;;;
2021/01/22 00:14:38;;;;;;;1.5;0.55;;;11.1;99.9;;;;;;;;;
2021/01/22 00:14:54;;;;;;;1.5;0.55;;;11.1;99.9;;;;;;;;;
2021/01/22 00:15:02;;;;;;;1.5;0.55;;;11.1;99.9;;;;;;;;;
2021/01/22 00:15:09;;;;;;;1.5;0.55;;;11.1;99.9;;;;;;;;;
2021/01/22 00:15:15;;;;;;;1.5;0.55;;;11.1;99.9;;;;;;;;;
2021/01/22 00:15:30;;;;;;;1.23;0.32;;;11.1;99.9;;;;;;;;;
2021/01/22 00:15:40;;;;;;;1.23;0.32;;;11.1;99.9;;;;;;;;;
2021/01/22 00:15:55;;;;;;;1.23;0.32;;;11.1;99.9;;;;;;;;;
2021/01/22 00:16:02;;;;;;;1.23;0.32;;;11.1;99.9;;;;;;;;;
2021/01/22 00:16:06;;;;;;;1.23;0.32;;;11.1;99.9;;;;;;;;;
2021/01/22 00:16:16;;;;;;;1.23;0.32;;;11.1;99.9;;;;;;;;;
2021/01/22 00:16:26;;;;;;;1.23;0.32;;;11.1;99.9;;;;;;;;;
2021/01/22 00:16:41;;;;;;;0.82;0.4;;;11.2;99.9;;;;;;;;;
2021/01/22 00:16:52;;;;;;;0.82;0.4;;;11.2;99.9;;;;;;;;;
2021/01/22 00:17:01;;;;;;;0.82;0.4;;;11.2;99.9;;;;;;;;;
2021/01/22 00:17:07;;;;;;;0.82;0.4;;;11.2;99.9;;;;;;;;;
2021/01/22 00:17:17;;;;;;;0.82;0.4;;;11.2;99.9;;;;;;;;;
2021/01/22 00:17:27;;;;;;;0.82;0.4;;;11.2;99.9;;;;;;;;;
2021/01/22 00:17:43;;;;;;;0.5;0.4;;;11.2;99.9;;;;;;;;;
2021/01/22 00:17:53;;;;;;;0.5;0.4;;;11.2;99.9;;;;;;;;;
2021/01/22 00:18:02;;;;;;;0.5;0.4;;;11.2;99.9;;;;;;;;;
2021/01/22 00:18:09;;;;;;;0.5;0.4;;;11.2;99.9;;;;;;;;;
2021/01/22 00:18:14;;;;;;;0.5;0.4;;;11.2;99.9;;;;;;;;;
2021/01/22 00:18:29;;;;;;;0.5;0.4;;;11.2;99.9;;;;;;;;;
2021/01/22 00:18:39;;;;;;;1.08;0.43;;;11.2;99.9;;;;;;;;;
2021/01/22 00:18:54;;;;;;;1.08;0.43;;;11.2;99.9;;;;;;;;;
2021/01/22 00:19:01;;;;;;;1.08;0.43;;;11.2;99.9;;;;;;;;;
2021/01/22 00:19:05;;;;;;;1.08;0.43;;;11.2;99.9;;;;;;;;;
2021/01/22 00:19:15;;;;;;;1.08;0.43;;;11.2;99.9;;;;;;;;;
2021/01/22 00:19:30;;;;;;;1.27;0.35;;;11.2;99.9;;;;;;;;;
2021/01/22 00:19:41;;;;;;;1.27;0.35;;;11.2;99.9;;;;;;;;;
2021/01/22 00:19:56;;;;;;;1.27;0.35;;;11.2;99.9;;;;;;;;;
2021/01/22 00:20:02;;;;;;;1.27;0.35;;;11.2;99.9;;;;;;;;;
2021/01/22 00:20:06;;;;;;;1.27;0.35;;;11.2;99.9;;;;;;;;;
2021/01/22 00:20:16;;;;;;;1.27;0.35;;;11.2;99.9;;;;;;;;;
2021/01/22 00:20:27;;;;;;;1.27;0.35;;;11.2;99.9;;;;;;;;;
2021/01/22 00:20:42;;;;;;;0.63;0.4;;;11.3;99.9;;;;;;;;;
2021/01/22 00:20:52;;;;;;;0.63;0.4;;;11.3;99.9;;;;;;;;;
2021/01/22 00:21:02;;;;;;;0.63;0.4;;;11.3;99.9;;;;;;;;;
2021/01/22 00:21:08;;;;;;;0.63;0.4;;;11.3;99.9;;;;;;;;;
2021/01/22 00:21:13;;;;;;;0.63;0.4;;;11.3;99.9;;;;;;;;;
2021/01/22 00:21:29;;;;;;;0.63;0.4;;;11.3;99.9;;;;;;;;;
2021/01/22 00:21:43;;;;;;;1;0.38;;;11.3;99.9;;;;;;;;;
2021/01/22 00:21:54;;;;;;;1;0.38;;;11.3;99.9;;;;;;;;;
2021/01/22 00:22:01;;;;;;;1;0.38;;;11.3;99.9;;;;;;;;;
2021/01/22 00:22:09;;;;;;;1;0.38;;;11.3;99.9;;;;;;;;;
2021/01/22 00:22:14;;;;;;;1;0.38;;;11.3;99.9;;;;;;;;;
2021/01/22 00:22:30;;;;;;;1;0.38;;;11.3;99.9;;;;;;;;;
2021/01/22 00:22:40;;;;;;;0.55;0.45;;;11.3;99.9;;;;;;;;;
2021/01/22 00:22:55;;;;;;;0.55;0.45;;;11.3;99.9;;;;;;;;;
2021/01/22 00:23:02;;;;;;;0.55;0.45;;;11.3;99.9;;;;;;;;;
2021/01/22 00:23:05;;;;;;;0.55;0.45;;;11.3;99.9;;;;;;;;;
2021/01/22 00:23:18;;;;;;;0.55;0.45;;;11.3;99.9;;;;;;;;;
2021/01/22 00:23:27;;;;;;;0.55;0.45;;;11.3;99.9;;;;;;;;;
2021/01/22 00:23:41;;;;;;;0.4;0.3;;;11.1;99.9;;;;;;;;;
2021/01/22 00:23:57;;;;;;;0.4;0.3;;;11.1;99.9;;;;;;;;;
2021/01/22 00:24:01;;;;;;;0.4;0.3;;;11.1;99.9;;;;;;;;;
2021/01/22 00:24:07;;;;;;;0.4;0.3;;;11.1;99.9;;;;;;;;;
2021/01/22 00:24:12;;;;;;;0.4;0.3;;;11.1;99.9;;;;;;;;;
2021/01/22 00:24:27;;;;;;;0.4;0.3;;;11.1;99.9;;;;;;;;;
2021/01/22 00:24:43;;;;;;;0.3;0.3;;;11.2;99.9;;;;;;;;;
2021/01/22 00:24:53;;;;;;;0.3;0.3;;;11.2;99.9;;;;;;;;;
2021/01/22 00:25:02;;;;;;;0.3;0.3;;;11.2;99.9;;;;;;;;;
2021/01/22 00:25:08;;;;;;;0.3;0.3;;;11.2;99.9;;;;;;;;;
2021/01/22 00:25:13;;;;;;;0.3;0.3;;;11.2;99.9;;;;;;;;;
2021/01/22 00:25:29;;;;;;;0.3;0.3;;;11.2;99.9;;;;;;;;;
2021/01/22 00:25:39;;;;;;;0.6;0.4;;;11.2;99.9;;;;;;;;;
2021/01/22 00:25:54;;;;;;;0.6;0.4;;;11.2;99.9;;;;;;;;;
2021/01/22 00:26:02;;;;;;;0.6;0.4;;;11.2;99.9;;;;;;;;;
2021/01/22 00:26:10;;;;;;;0.6;0.4;;;11.2;99.9;;;;;;;;;
2021/01/22 00:26:15;;;;;;;0.6;0.4;;;11.2;99.9;;;;;;;;;
2021/01/22 00:26:25;;;;;;;0.6;0.4;;;11.2;99.9;;;;;;;;;
2021/01/22 00:26:40;;;;;;;0.47;0.3;;;11.2;99.9;;;;;;;;;
2021/01/22 00:26:56;;;;;;;0.47;0.3;;;11.2;99.9;;;;;;;;;
2021/01/22 00:27:01;;;;;;;0.47;0.3;;;11.2;99.9;;;;;;;;;
2021/01/22 00:27:06;;;;;;;0.47;0.3;;;11.2;99.9;;;;;;;;;
2021/01/22 00:27:16;;;;;;;0.47;0.3;;;11.2;99.9;;;;;;;;;
2021/01/22 00:27:26;;;;;;;0.47;0.3;;;11.2;99.9;;;;;;;;;
2021/01/22 00:27:42;;;;;;;1;0.3;;;11.2;99.9;;;;;;;;;
2021/01/22 00:27:52;;;;;;;1;0.3;;;11.2;99.9;;;;;;;;;
2021/01/22 00:28:04;;;;;;;1;0.3;;;11.2;99.9;;;;;;;;;
2021/01/22 00:28:07;;;;;;;1;0.3;;;11.2;99.9;;;;;;;;;
2021/01/22 00:28:13;;;;;;;1;0.3;;;11.2;99.9;;;;;;;;;
2021/01/22 00:28:28;;;;;;;1;0.3;;;11.2;99.9;;;;;;;;;
2021/01/22 00:28:38;;;;;;;2.58;0.7;;;11.2;99.9;;;;;;;;;
2021/01/22 00:28:54;;;;;;;2.58;0.7;;;11.2;99.9;;;;;;;;;
2021/01/22 00:29:01;;;;;;;2.58;0.7;;;11.2;99.9;;;;;;;;;
2021/01/22 00:29:09;;;;;;;2.58;0.7;;;11.2;99.9;;;;;;;;;
2021/01/22 00:29:14;;;;;;;2.58;0.7;;;11.2;99.9;;;;;;;;;
2021/01/22 00:29:29;;;;;;;2.58;0.7;;;11.2;99.9;;;;;;;;;
2021/01/22 00:29:40;;;;;;;0.9;0.4;;;11.2;99.9;;;;;;;;;
2021/01/22 00:29:55;;;;;;;0.9;0.4;;;11.2;99.9;;;;;;;;;
2021/01/22 00:30:02;;;;;;;0.9;0.4;;;11.2;99.9;;;;;;;;;
2021/01/22 00:30:05;;;;;;;0.9;0.4;;;11.2;99.9;;;;;;;;;
2021/01/22 00:30:16;;;;;;;0.9;0.4;;;11.2;99.9;;;;;;;;;
2021/01/22 00:30:26;;;;;;;0.9;0.4;;;11.2;99.9;;;;;;;;;
2021/01/22 00:30:41;;;;;;;0.45;0.4;;;11.2;99.9;;;;;;;;;
2021/01/22 00:30:51;;;;;;;0.45;0.4;;;11.2;99.9;;;;;;;;;
2021/01/22 00:31:02;;;;;;;0.45;0.4;;;11.2;99.9;;;;;;;;;
2021/01/22 00:31:07;;;;;;;0.45;0.4;;;11.2;99.9;;;;;;;;;
2021/01/22 00:31:12;;;;;;;0.45;0.4;;;11.2;99.9;;;;;;;;;
2021/01/22 00:31:27;;;;;;;0.45;0.4;;;11.2;99.9;;;;;;;;;
2021/01/22 00:31:42;;;;;;;2;0.5;;;11.3;99.9;;;;;;;;;
2021/01/22 00:31:53;;;;;;;2;0.5;;;11.3;99.9;;;;;;;;;
2021/01/22 00:32:02;;;;;;;2;0.5;;;11.3;99.9;;;;;;;;;
2021/01/22 00:32:08;;;;;;;2;0.5;;;11.3;99.9;;;;;;;;;
2021/01/22 00:32:13;;;;;;;2;0.5;;;11.3;99.9;;;;;;;;;
2021/01/22 00:32:29;;;;;;;2;0.5;;;11.3;99.9;;;;;;;;;
2021/01/22 00:32:39;;;;;;;0.98;0.7;;;11.3;99.9;;;;;;;;;
2021/01/22 00:32:54;;;;;;;0.98;0.7;;;11.3;99.9;;;;;;;;;
2021/01/22 00:33:02;;;;;;;0.98;0.7;;;11.3;99.9;;;;;;;;;
2021/01/22 00:33:04;;;;;;;0.98;0.7;;;11.3;99.9;;;;;;;;;
2021/01/22 00:33:15;;;;;;;0.98;0.7;;;11.3;99.9;;;;;;;;;
2021/01/22 00:33:25;;;;;;;0.98;0.7;;;11.3;99.9;;;;;;;;;
2021/01/22 00:33:40;;;;;;;0.57;0.4;;;11.2;99.9;;;;;;;;;
2021/01/22 00:33:56;;;;;;;0.57;0.4;;;11.2;99.9;;;;;;;;;
2021/01/22 00:34:01;;;;;;;0.57;0.4;;;11.2;99.9;;;;;;;;;
2021/01/22 00:34:06;;;;;;;0.57;0.4;;;11.2;99.9;;;;;;;;;
2021/01/22 00:34:16;;;;;;;0.57;0.4;;;11.2;99.9;;;;;;;;;
2021/01/22 00:34:26;;;;;;;0.57;0.4;;;11.2;99.9;;;;;;;;;
2021/01/22 00:34:42;;;;;;;0.52;0.4;;;11.2;99.9;;;;;;;;;
2021/01/22 00:34:52;;;;;;;0.52;0.4;;;11.2;99.9;;;;;;;;;
2021/01/22 00:35:02;;;;;;;0.52;0.4;;;11.2;99.9;;;;;;;;;
2021/01/22 00:35:07;;;;;;;0.52;0.4;;;11.2;99.9;;;;;;;;;
2021/01/22 00:35:12;;;;;;;0.52;0.4;;;11.2;99.9;;;;;;;;;
2021/01/22 00:35:28;;;;;;;0.52;0.4;;;11.2;99.9;;;;;;;;;
2021/01/22 00:35:38;;;;;;;0.9;0.4;;;11.1;99.9;;;;;;;;;
2021/01/22 00:35:53;;;;;;;0.9;0.4;;;11.1;99.9;;;;;;;;;
2021/01/22 00:36:02;;;;;;;0.9;0.4;;;11.1;99.9;;;;;;;;;
2021/01/22 00:36:09;;;;;;;0.9;0.4;;;11.1;99.9;;;;;;;;;
2021/01/22 00:36:14;;;;;;;0.9;0.4;;;11.1;99.9;;;;;;;;;
2021/01/22 00:36:29;;;;;;;0.9;0.4;;;11.1;99.9;;;;;;;;;
2021/01/22 00:36:40;;;;;;;0.5;0.4;;;11.1;99.9;;;;;;;;;
2021/01/22 00:36:55;;;;;;;0.5;0.4;;;11.1;99.9;;;;;;;;;
2021/01/22 00:37:02;;;;;;;0.5;0.4;;;11.1;99.9;;;;;;;;;
2021/01/22 00:37:05;;;;;;;0.5;0.4;;;11.1;99.9;;;;;;;;;
2021/01/22 00:37:15;;;;;;;0.5;0.4;;;11.1;99.9;;;;;;;;;
2021/01/22 00:37:26;;;;;;;0.5;0.4;;;11.1;99.9;;;;;;;;;
2021/01/22 00:37:41;;;;;;;0.9;0.6;;;11.1;99.9;;;;;;;;;
2021/01/22 00:37:51;;;;;;;0.9;0.6;;;11.1;99.9;;;;;;;;;
2021/01/22 00:38:02;;;;;;;0.9;0.6;;;11.1;99.9;;;;;;;;;
2021/01/22 00:38:07;;;;;;;0.9;0.6;;;11.1;99.9;;;;;;;;;
2021/01/22 00:38:17;;;;;;;0.9;0.6;;;11.1;99.9;;;;;;;;;
2021/01/22 00:38:27;;;;;;;0.9;0.6;;;11.1;99.9;;;;;;;;;
2021/01/22 00:38:42;;;;;;;1.8;0.7;;;11;99.9;;;;;;;;;
2021/01/22 00:38:53;;;;;;;1.8;0.7;;;11;99.9;;;;;;;;;
2021/01/22 00:39:01;;;;;;;1.8;0.7;;;11;99.9;;;;;;;;;
2021/01/22 00:39:08;;;;;;;1.8;0.7;;;11;99.9;;;;;;;;;
2021/01/22 00:39:13;;;;;;;1.8;0.7;;;11;99.9;;;;;;;;;
2021/01/22 00:39:28;;;;;;;1.8;0.7;;;11;99.9;;;;;;;;;
2021/01/22 00:39:39;;;;;;;0.4;0.4;;;11;99.9;;;;;;;;;
2021/01/22 00:39:55;;;;;;;0.4;0.4;;;11;99.9;;;;;;;;;
2021/01/22 00:40:02;;;;;;;0.4;0.4;;;11;99.9;;;;;;;;;
2021/01/22 00:40:04;;;;;;;0.4;0.4;;;11;99.9;;;;;;;;;
2021/01/22 00:40:14;;;;;;;0.4;0.4;;;11;99.9;;;;;;;;;
2021/01/22 00:40:31;;;;;;;0.4;0.4;;;11;99.9;;;;;;;;;
2021/01/22 00:40:40;;;;;;;0.4;0.4;;;11;99.9;;;;;;;;;
2021/01/22 00:40:55;;;;;;;0.4;0.4;;;11;99.9;;;;;;;;;
2021/01/22 00:41:02;;;;;;;0.4;0.4;;;11;99.9;;;;;;;;;
2021/01/22 00:41:06;;;;;;;0.4;0.4;;;11;99.9;;;;;;;;;
2021/01/22 00:41:16;;;;;;;0.4;0.4;;;11;99.9;;;;;;;;;
2021/01/22 00:41:26;;;;;;;0.4;0.4;;;11;99.9;;;;;;;;;
2021/01/22 00:41:42;;;;;;;1.27;0.57;;;11;99.9;;;;;;;;;
2021/01/22 00:41:52;;;;;;;1.27;0.57;;;11;99.9;;;;;;;;;
2021/01/22 00:42:02;;;;;;;1.27;0.57;;;11;99.9;;;;;;;;;
2021/01/22 00:42:07;;;;;;;1.27;0.57;;;11;99.9;;;;;;;;;
2021/01/22 00:42:17;;;;;;;1.27;0.57;;;11;99.9;;;;;;;;;
2021/01/22 00:42:28;;;;;;;1.27;0.57;;;11;99.9;;;;;;;;;
2021/01/22 00:42:43;;;;;;;0.6;0.4;;;11;99.9;;;;;;;;;
2021/01/22 00:42:53;;;;;;;0.6;0.4;;;11;99.9;;;;;;;;;
2021/01/22 00:43:02;;;;;;;0.6;0.4;;;11;99.9;;;;;;;;;
2021/01/22 00:43:09;;;;;;;0.6;0.4;;;11;99.9;;;;;;;;;
2021/01/22 00:43:14;;;;;;;0.6;0.4;;;11;99.9;;;;;;;;;
2021/01/22 00:43:29;;;;;;;0.6;0.4;;;11;99.9;;;;;;;;;
2021/01/22 00:43:39;;;;;;;1.08;0.5;;;11;99.9;;;;;;;;;
2021/01/22 00:43:55;;;;;;;1.08;0.5;;;11;99.9;;;;;;;;;
2021/01/22 00:44:01;;;;;;;1.08;0.5;;;11;99.9;;;;;;;;;
2021/01/22 00:44:05;;;;;;;1.08;0.5;;;11;99.9;;;;;;;;;
2021/01/22 00:44:15;;;;;;;1.08;0.5;;;11;99.9;;;;;;;;;
2021/01/22 00:44:30;;;;;;;1.08;0.5;;;11;99.9;;;;;;;;;
2021/01/22 00:44:41;;;;;;;1;0.6;;;11;99.9;;;;;;;;;
2021/01/22 00:44:56;;;;;;;1;0.6;;;11;99.9;;;;;;;;;
2021/01/22 00:45:02;;;;;;;1;0.6;;;11;99.9;;;;;;;;;
2021/01/22 00:45:06;;;;;;;1;0.6;;;11;99.9;;;;;;;;;
2021/01/22 00:45:17;;;;;;;1;0.6;;;11;99.9;;;;;;;;;
2021/01/22 00:45:27;;;;;;;1;0.6;;;11;99.9;;;;;;;;;
2021/01/22 00:45:42;;;;;;;1.02;0.57;;;11;99.9;;;;;;;;;
2021/01/22 00:45:52;;;;;;;1.02;0.57;;;11;99.9;;;;;;;;;
2021/01/22 00:46:01;;;;;;;1.02;0.57;;;11;99.9;;;;;;;;;
2021/01/22 00:46:08;;;;;;;1.02;0.57;;;11;99.9;;;;;;;;;
2021/01/22 00:46:13;;;;;;;1.02;0.57;;;11;99.9;;;;;;;;;
2021/01/22 00:46:28;;;;;;;1.02;0.57;;;11;99.9;;;;;;;;;
2021/01/22 00:46:44;;;;;;;1.17;0.57;;;11.1;99.9;;;;;;;;;
2021/01/22 00:46:54;;;;;;;1.17;0.57;;;11.1;99.9;;;;;;;;;
2021/01/22 00:47:02;;;;;;;1.17;0.57;;;11.1;99.9;;;;;;;;;
2021/01/22 00:47:09;;;;;;;1.17;0.57;;;11.1;99.9;;;;;;;;;
2021/01/22 00:47:14;;;;;;;1.17;0.57;;;11.1;99.9;;;;;;;;;
2021/01/22 00:47:30;;;;;;;1.17;0.57;;;11.1;99.9;;;;;;;;;
2021/01/22 00:47:40;;;;;;;0.75;0.5;;;11;99.9;;;;;;;;;
2021/01/22 00:47:55;;;;;;;0.75;0.5;;;11;99.9;;;;;;;;;
2021/01/22 00:48:02;;;;;;;0.75;0.5;;;11;99.9;;;;;;;;;
2021/01/22 00:48:06;;;;;;;0.75;0.5;;;11;99.9;;;;;;;;;
2021/01/22 00:48:16;;;;;;;0.75;0.5;;;11;99.9;;;;;;;;;
2021/01/22 00:48:26;;;;;;;0.75;0.5;;;11;99.9;;;;;;;;;
2021/01/22 00:48:41;;;;;;;0.8;0.4;;;11;99.9;;;;;;;;;
2021/01/22 00:48:57;;;;;;;0.8;0.4;;;11;99.9;;;;;;;;;
2021/01/22 00:49:01;;;;;;;0.8;0.4;;;11;99.9;;;;;;;;;
2021/01/22 00:49:07;;;;;;;0.8;0.4;;;11;99.9;;;;;;;;;
2021/01/22 00:49:12;;;;;;;0.8;0.4;;;11;99.9;;;;;;;;;
2021/01/22 00:49:27;;;;;;;0.8;0.4;;;11;99.9;;;;;;;;;
2021/01/22 00:49:43;;;;;;;1.05;0.43;;;11;99.9;;;;;;;;;
2021/01/22 00:49:53;;;;;;;1.05;0.43;;;11;99.9;;;;;;;;;
2021/01/22 00:50:02;;;;;;;1.05;0.43;;;11;99.9;;;;;;;;;
2021/01/22 00:50:08;;;;;;;1.05;0.43;;;11;99.9;;;;;;;;;
2021/01/22 00:50:14;;;;;;;1.05;0.43;;;11;99.9;;;;;;;;;
2021/01/22 00:50:29;;;;;;;1.05;0.43;;;11;99.9;;;;;;;;;
2021/01/22 00:50:39;;;;;;;1.05;0.43;;;11;99.9;;;;;;;;;
2021/01/22 00:50:55;;;;;;;0.45;0.43;;;11.1;99.9;;;;;;;;;
2021/01/22 00:51:02;;;;;;;0.45;0.43;;;11.1;99.9;;;;;;;;;
2021/01/22 00:51:10;;;;;;;0.45;0.43;;;11.1;99.9;;;;;;;;;
2021/01/22 00:51:15;;;;;;;0.45;0.43;;;11.1;99.9;;;;;;;;;
2021/01/22 00:51:25;;;;;;;0.45;0.43;;;11.1;99.9;;;;;;;;;
2021/01/22 00:51:41;;;;;;;1.42;0.65;;;11.1;99.9;;;;;;;;;
2021/01/22 00:51:56;;;;;;;1.42;0.65;;;11.1;99.9;;;;;;;;;
2021/01/22 00:52:02;;;;;;;1.42;0.65;;;11.1;99.9;;;;;;;;;
2021/01/22 00:52:06;;;;;;;1.42;0.65;;;11.1;99.9;;;;;;;;;
2021/01/22 00:52:17;;;;;;;1.42;0.65;;;11.1;99.9;;;;;;;;;
2021/01/22 00:52:27;;;;;;;1.42;0.65;;;11.1;99.9;;;;;;;;;
2021/01/22 00:52:42;;;;;;;0.75;0.5;;;11;99.9;;;;;;;;;
2021/01/22 00:52:52;;;;;;;0.75;0.5;;;11;99.9;;;;;;;;;
2021/01/22 00:53:02;;;;;;;0.75;0.5;;;11;99.9;;;;;;;;;
2021/01/22 00:53:08;;;;;;;0.75;0.5;;;11;99.9;;;;;;;;;
2021/01/22 00:53:13;;;;;;;0.75;0.5;;;11;99.9;;;;;;;;;
2021/01/22 00:53:28;;;;;;;0.75;0.5;;;11;99.9;;;;;;;;;
2021/01/22 00:53:38;;;;;;;0.75;0.5;;;11;99.9;;;;;;;;;
2021/01/22 00:53:54;;;;;;;0.88;0.5;;;11;99.9;;;;;;;;;
2021/01/22 00:54:02;;;;;;;0.88;0.5;;;11;99.9;;;;;;;;;
2021/01/22 00:54:09;;;;;;;0.88;0.5;;;11;99.9;;;;;;;;;
2021/01/22 00:54:14;;;;;;;0.88;0.5;;;11;99.9;;;;;;;;;
2021/01/22 00:54:30;;;;;;;0.88;0.5;;;11;99.9;;;;;;;;;
2021/01/22 00:54:40;;;;;;;0.88;0.5;;;11;99.9;;;;;;;;;
2021/01/22 00:54:55;;;;;;;2.92;0.55;;;11;99.9;;;;;;;;;
2021/01/22 00:55:02;;;;;;;2.92;0.55;;;11;99.9;;;;;;;;;
2021/01/22 00:55:05;;;;;;;2.92;0.55;;;11;99.9;;;;;;;;;
2021/01/22 00:55:16;;;;;;;2.92;0.55;;;11;99.9;;;;;;;;;
2021/01/22 00:55:26;;;;;;;2.92;0.55;;;11;99.9;;;;;;;;;
2021/01/22 00:55:41;;;;;;;0.73;0.43;;;11;99.9;;;;;;;;;
2021/01/22 00:55:51;;;;;;;0.73;0.43;;;11;99.9;;;;;;;;;
2021/01/22 00:56:01;;;;;;;0.73;0.43;;;11;99.9;;;;;;;;;
2021/01/22 00:56:07;;;;;;;0.73;0.43;;;11;99.9;;;;;;;;;
2021/01/22 00:56:12;;;;;;;0.73;0.43;;;11;99.9;;;;;;;;;
2021/01/22 00:56:27;;;;;;;0.73;0.43;;;11;99.9;;;;;;;;;
2021/01/22 00:56:43;;;;;;;0.5;0.5;;;11;99.9;;;;;;;;;
2021/01/22 00:56:53;;;;;;;0.5;0.5;;;11;99.9;;;;;;;;;
2021/01/22 00:57:02;;;;;;;0.5;0.5;;;11;99.9;;;;;;;;;
2021/01/22 00:57:08;;;;;;;0.5;0.5;;;11;99.9;;;;;;;;;
2021/01/22 00:57:13;;;;;;;0.5;0.5;;;11;99.9;;;;;;;;;
2021/01/22 00:57:29;;;;;;;0.5;0.5;;;11;99.9;;;;;;;;;
2021/01/22 00:57:39;;;;;;;0.5;0.5;;;11;99.9;;;;;;;;;
2021/01/22 00:57:54;;;;;;;0.88;0.5;;;11;99.9;;;;;;;;;
2021/01/22 00:58:02;;;;;;;0.88;0.5;;;11;99.9;;;;;;;;;
2021/01/22 00:58:05;;;;;;;0.88;0.5;;;11;99.9;;;;;;;;;
2021/01/22 00:58:15;;;;;;;0.88;0.5;;;11;99.9;;;;;;;;;
2021/01/22 00:58:25;;;;;;;0.88;0.5;;;11;99.9;;;;;;;;;
2021/01/22 00:58:40;;;;;;;0.88;0.5;;;11;99.9;;;;;;;;;
2021/01/22 00:58:56;;;;;;;1.5;0.6;;;11;99.9;;;;;;;;;
2021/01/22 00:59:01;;;;;;;1.5;0.6;;;11;99.9;;;;;;;;;
2021/01/22 00:59:06;;;;;;;1.5;0.6;;;11;99.9;;;;;;;;;
2021/01/22 00:59:16;;;;;;;1.5;0.6;;;11;99.9;;;;;;;;;
2021/01/22 00:59:26;;;;;;;1.5;0.6;;;11;99.9;;;;;;;;;
2021/01/22 00:59:42;;;;;;;1.5;0.6;;;11;99.9;;;;;;;;;
2021/01/22 00:59:52;;;;;;;0.63;0.5;;;11;99.9;;;;;;;;;
2021/01/22 01:00:02;;;;;;;0.63;0.5;;;11;99.9;;;;;;;;;
2021/01/22 01:00:08;;;;;;;0.63;0.5;;;11;99.9;;;;;;;;;
2021/01/22 01:00:13;;;;;;;0.63;0.5;;;11;99.9;;;;;;;;;
2021/01/22 01:00:28;;;;;;;0.63;0.5;;;11;99.9;;;;;;;;;
2021/01/22 01:00:38;;;;;;;0.63;0.5;;;11;99.9;;;;;;;;;
2021/01/22 01:00:54;;;;;;;2.1;0.8;;;11;99.9;;;;;;;;;
2021/01/22 01:01:01;;;;;;;2.1;0.8;;;11;99.9;;;;;;;;;
2021/01/22 01:01:09;;;;;;;2.1;0.8;;;11;99.9;;;;;;;;;
2021/01/22 01:01:14;;;;;;;2.1;0.8;;;11;99.9;;;;;;;;;
2021/01/22 01:01:29;;;;;;;2.1;0.8;;;11;99.9;;;;;;;;;
2021/01/22 01:01:40;;;;;;;2.1;0.8;;;11;99.9;;;;;;;;;
2021/01/22 01:01:55;;;;;;;1.75;0.55;;;11;99.9;;;;;;;;;
2021/01/22 01:02:02;;;;;;;1.75;0.55;;;11;99.9;;;;;;;;;
2021/01/22 01:02:05;;;;;;;1.75;0.55;;;11;99.9;;;;;;;;;
2021/01/22 01:02:15;;;;;;;1.75;0.55;;;11;99.9;;;;;;;;;
2021/01/22 01:02:26;;;;;;;1.75;0.55;;;11;99.9;;;;;;;;;
2021/01/22 01:02:41;;;;;;;1.75;0.55;;;11;99.9;;;;;;;;;
2021/01/22 01:02:51;;;;;;;2.15;0.77;;;11;99.9;;;;;;;;;
2021/01/22 01:03:02;;;;;;;2.15;0.77;;;11;99.9;;;;;;;;;
2021/01/22 01:03:07;;;;;;;2.15;0.77;;;11;99.9;;;;;;;;;
2021/01/22 01:03:12;;;;;;;2.15;0.77;;;11;99.9;;;;;;;;;
2021/01/22 01:03:27;;;;;;;2.15;0.77;;;11;99.9;;;;;;;;;
2021/01/22 01:03:42;;;;;;;2.15;0.77;;;11;99.9;;;;;;;;;
2021/01/22 01:03:53;;;;;;;0.63;0.45;;;11;99.9;;;;;;;;;
2021/01/22 01:04:02;;;;;;;0.63;0.45;;;11;99.9;;;;;;;;;
2021/01/22 01:04:08;;;;;;;0.63;0.45;;;11;99.9;;;;;;;;;
2021/01/22 01:04:13;;;;;;;0.63;0.45;;;11;99.9;;;;;;;;;
2021/01/22 01:04:29;;;;;;;0.63;0.45;;;11;99.9;;;;;;;;;
2021/01/22 01:04:39;;;;;;;0.63;0.45;;;11;99.9;;;;;;;;;
2021/01/22 01:04:54;;;;;;;0.93;0.63;;;11;99.9;;;;;;;;;
2021/01/22 01:05:02;;;;;;;0.93;0.63;;;11;99.9;;;;;;;;;
2021/01/22 01:05:04;;;;;;;0.93;0.63;;;11;99.9;;;;;;;;;
2021/01/22 01:05:15;;;;;;;0.93;0.63;;;11;99.9;;;;;;;;;
2021/01/22 01:05:25;;;;;;;0.93;0.63;;;11;99.9;;;;;;;;;
2021/01/22 01:05:40;;;;;;;0.93;0.63;;;11;99.9;;;;;;;;;
2021/01/22 01:05:56;;;;;;;3.72;0.7;;;10.8;99.9;;;;;;;;;
2021/01/22 01:06:01;;;;;;;3.72;0.7;;;10.8;99.9;;;;;;;;;
2021/01/22 01:06:06;;;;;;;3.72;0.7;;;10.8;99.9;;;;;;;;;
2021/01/22 01:06:16;;;;;;;3.72;0.7;;;10.8;99.9;;;;;;;;;
2021/01/22 01:06:26;;;;;;;3.72;0.7;;;10.8;99.9;;;;;;;;;
2021/01/22 01:06:42;;;;;;;3.72;0.7;;;10.8;99.9;;;;;;;;;
2021/01/22 01:06:52;;;;;;;1.35;0.7;;;10.8;99.9;;;;;;;;;
2021/01/22 01:07:02;;;;;;;1.35;0.7;;;10.8;99.9;;;;;;;;;
2021/01/22 01:07:07;;;;;;;1.35;0.7;;;10.8;99.9;;;;;;;;;
2021/01/22 01:07:17;;;;;;;1.35;0.7;;;10.8;99.9;;;;;;;;;
2021/01/22 01:07:28;;;;;;;1.35;0.7;;;10.8;99.9;;;;;;;;;
2021/01/22 01:07:38;;;;;;;1.35;0.7;;;10.8;99.9;;;;;;;;;
2021/01/22 01:07:53;;;;;;;2.1;0.7;;;10.9;99.9;;;;;;;;;
2021/01/22 01:08:02;;;;;;;2.1;0.7;;;10.9;99.9;;;;;;;;;
2021/01/22 01:08:09;;;;;;;2.1;0.7;;;10.9;99.9;;;;;;;;;
2021/01/22 01:08:14;;;;;;;2.1;0.7;;;10.9;99.9;;;;;;;;;
2021/01/22 01:08:29;;;;;;;2.1;0.7;;;10.9;99.9;;;;;;;;;
2021/01/22 01:08:39;;;;;;;2.1;0.7;;;10.9;99.9;;;;;;;;;
2021/01/22 01:08:55;;;;;;;1.25;0.7;;;10.9;99.9;;;;;;;;;
2021/01/22 01:09:02;;;;;;;1.25;0.7;;;10.9;99.9;;;;;;;;;
2021/01/22 01:09:05;;;;;;;1.25;0.7;;;10.9;99.9;;;;;;;;;
2021/01/22 01:09:15;;;;;;;1.25;0.7;;;10.9;99.9;;;;;;;;;
2021/01/22 01:09:31;;;;;;;1.25;0.7;;;10.9;99.9;;;;;;;;;
2021/01/22 01:09:41;;;;;;;1.25;0.7;;;10.9;99.9;;;;;;;;;
2021/01/22 01:09:51;;;;;;;1.35;0.75;;;10.9;99.9;;;;;;;;;
2021/01/22 01:10:02;;;;;;;1.35;0.75;;;10.9;99.9;;;;;;;;;
2021/01/22 01:10:06;;;;;;;1.35;0.75;;;10.9;99.9;;;;;;;;;
2021/01/22 01:10:17;;;;;;;1.35;0.75;;;10.9;99.9;;;;;;;;;
2021/01/22 01:10:27;;;;;;;1.35;0.75;;;10.9;99.9;;;;;;;;;
2021/01/22 01:10:42;;;;;;;1.35;0.75;;;10.9;99.9;;;;;;;;;
2021/01/22 01:10:53;;;;;;;1.42;0.85;;;10.9;99.9;;;;;;;;;
2021/01/22 01:11:01;;;;;;;1.42;0.85;;;10.9;99.9;;;;;;;;;
2021/01/22 01:11:08;;;;;;;1.42;0.85;;;10.9;99.9;;;;;;;;;
2021/01/22 01:11:13;;;;;;;1.42;0.85;;;10.9;99.9;;;;;;;;;
2021/01/22 01:11:28;;;;;;;1.42;0.85;;;10.9;99.9;;;;;;;;;
2021/01/22 01:11:44;;;;;;;1.42;0.85;;;10.9;99.9;;;;;;;;;
2021/01/22 01:11:54;;;;;;;4.18;0.7;;;10.8;99.9;;;;;;;;;
2021/01/22 01:12:02;;;;;;;4.18;0.7;;;10.8;99.9;;;;;;;;;
2021/01/22 01:12:04;;;;;;;4.18;0.7;;;10.8;99.9;;;;;;;;;
2021/01/22 01:12:17;;;;;;;4.18;0.7;;;10.8;99.9;;;;;;;;;
2021/01/22 01:12:30;;;;;;;4.18;0.7;;;10.8;99.9;;;;;;;;;
2021/01/22 01:12:40;;;;;;;4.18;0.7;;;10.8;99.9;;;;;;;;;
2021/01/22 01:12:55;;;;;;;0.6;0.5;;;10.8;99.9;;;;;;;;;
2021/01/22 01:13:02;;;;;;;0.6;0.5;;;10.8;99.9;;;;;;;;;
2021/01/22 01:13:06;;;;;;;0.6;0.5;;;10.8;99.9;;;;;;;;;
2021/01/22 01:13:16;;;;;;;0.6;0.5;;;10.8;99.9;;;;;;;;;
2021/01/22 01:13:26;;;;;;;0.6;0.5;;;10.8;99.9;;;;;;;;;
2021/01/22 01:13:41;;;;;;;0.6;0.5;;;10.8;99.9;;;;;;;;;
2021/01/22 01:13:57;;;;;;;1.75;0.6;;;10.8;99.9;;;;;;;;;
2021/01/22 01:14:02;;;;;;;1.75;0.6;;;10.8;99.9;;;;;;;;;
2021/01/22 01:14:07;;;;;;;1.75;0.6;;;10.8;99.9;;;;;;;;;
2021/01/22 01:14:12;;;;;;;1.75;0.6;;;10.8;99.9;;;;;;;;;
2021/01/22 01:14:28;;;;;;;1.75;0.6;;;10.8;99.9;;;;;;;;;
2021/01/22 01:14:43;;;;;;;1.75;0.6;;;10.8;99.9;;;;;;;;;
2021/01/22 01:14:53;;;;;;;2.2;0.85;;;10.8;99.9;;;;;;;;;
2021/01/22 01:15:02;;;;;;;2.2;0.85;;;10.8;99.9;;;;;;;;;
2021/01/22 01:15:09;;;;;;;2.2;0.85;;;10.8;99.9;;;;;;;;;
2021/01/22 01:15:14;;;;;;;2.2;0.85;;;10.8;99.9;;;;;;;;;
2021/01/22 01:15:29;;;;;;;2.2;0.85;;;10.8;99.9;;;;;;;;;
2021/01/22 01:15:40;;;;;;;2.2;0.85;;;10.8;99.9;;;;;;;;;
2021/01/22 01:15:55;;;;;;;0.77;0.68;;;10.7;99.9;;;;;;;;;
2021/01/22 01:16:01;;;;;;;0.77;0.68;;;10.7;99.9;;;;;;;;;
2021/01/22 01:16:10;;;;;;;0.77;0.68;;;10.7;99.9;;;;;;;;;
2021/01/22 01:16:15;;;;;;;0.77;0.68;;;10.7;99.9;;;;;;;;;
2021/01/22 01:16:25;;;;;;;0.77;0.68;;;10.7;99.9;;;;;;;;;
2021/01/22 01:16:41;;;;;;;0.77;0.68;;;10.7;99.9;;;;;;;;;
2021/01/22 01:16:56;;;;;;;4.6;1.55;;;10.7;99.9;;;;;;;;;
2021/01/22 01:17:02;;;;;;;4.6;1.55;;;10.7;99.9;;;;;;;;;
2021/01/22 01:17:06;;;;;;;4.6;1.55;;;10.7;99.9;;;;;;;;;